Terminal Aerodrome Forecast
Issued by NWS

Home | Current Version | Previous Version | Text Only | Print | Product List | Glossary On
Versions: 1 2 3 4 5 6 7 8 9 10 11 12 13
000
FTUS46 KLOX 181100
TAFVNY
TAF
KVNY 181120Z 1812/1912 VRB03KT P6SM SKC
     FM182100 14008KT P6SM SKC
     FM190400 VRB03KT P6SM SKC
     FM191100 VRB03KT 3SM BR BKN005=

USA.gov is the U.S. government's official web portal to all federal, state and local government web resources and services.